Time;durP1;ratioP1;P1;durP2;ratioP2;P2;SDS_P1;SDS_P2;PMS_P1;PMS_P2;Temp;Humidity;BMP_temperature;BMP_pressure;BME280_temperature;BME280_humidity;BME280_pressure;Samples;Min_cycle;Max_cycle;Signal;HPM_P1;HPM_P2
2021/05/11 00:01:05;;;;;;;7.80;4.72;;;14.90;90.70;;;;;;5034028;28;20422;-71
2021/05/11 00:03:31;;;;;;;9.00;5.25;;;14.90;90.70;;;;;;5035956;28;20018;-70
2021/05/11 00:05:57;;;;;;;8.68;5.05;;;15.00;90.60;;;;;;5017243;28;20052;-71
2021/05/11 00:08:22;;;;;;;8.38;5.00;;;15.00;90.40;;;;;;5018100;28;20116;-70
2021/05/11 00:10:48;;;;;;;8.85;4.82;;;15.00;90.50;;;;;;5035446;28;20029;-72
2021/05/11 00:13:14;;;;;;;8.55;5.07;;;14.90;90.70;;;;;;5018458;28;20478;-70
2021/05/11 00:15:39;;;;;;;11.38;5.60;;;14.90;90.60;;;;;;5036121;28;20041;-71
2021/05/11 00:18:05;;;;;;;7.25;4.40;;;15.00;90.60;;;;;;5017455;28;20382;-70
2021/05/11 00:20:31;;;;;;;8.80;5.15;;;14.90;90.60;;;;;;5035373;28;20351;-70
2021/05/11 00:22:56;;;;;;;10.52;5.00;;;14.90;90.70;;;;;;5035003;28;20033;-71
2021/05/11 00:25:22;;;;;;;10.25;5.00;;;14.90;90.60;;;;;;5018222;28;20030;-70
2021/05/11 00:27:48;;;;;;;9.95;5.28;;;14.90;90.60;;;;;;5035570;28;20469;-70
2021/05/11 00:30:14;;;;;;;10.15;5.30;;;14.90;90.50;;;;;;5035741;28;20025;-70
2021/05/11 00:32:40;;;;;;;8.93;4.80;;;14.90;90.50;;;;;;5017792;28;20029;-70
2021/05/11 00:35:06;;;;;;;9.23;4.95;;;14.90;90.60;;;;;;5017141;28;20099;-70
2021/05/11 00:37:31;;;;;;;9.77;5.60;;;14.90;90.40;;;;;;5017735;28;20044;-70
2021/05/11 00:39:57;;;;;;;7.63;4.88;;;14.90;90.70;;;;;;5017001;28;20025;-70
2021/05/11 00:42:23;;;;;;;7.32;4.53;;;14.90;90.70;;;;;;5035283;28;20034;-70
2021/05/11 00:44:48;;;;;;;9.68;5.50;;;14.90;90.70;;;;;;5017477;28;20025;-70
2021/05/11 00:47:14;;;;;;;9.90;5.45;;;14.80;90.70;;;;;;5016426;28;20061;-70
2021/05/11 00:49:40;;;;;;;9.73;5.10;;;14.80;90.70;;;;;;5017578;28;20025;-70
2021/05/11 00:52:07;;;;;;;9.30;5.00;;;14.90;90.60;;;;;;5016745;28;20037;-70
2021/05/11 00:54:33;;;;;;;10.68;5.32;;;14.90;90.40;;;;;;5017356;28;20125;-70
2021/05/11 00:57:01;;;;;;;9.18;5.45;;;14.80;90.50;;;;;;5034130;28;20108;-71
2021/05/11 00:59:27;;;;;;;9.75;6.20;;;14.80;90.60;;;;;;5035096;28;20035;-70
2021/05/11 01:01:53;;;;;;;9.40;5.40;;;14.80;90.70;;;;;;5016513;28;20091;-71
2021/05/11 01:04:19;;;;;;;12.00;5.88;;;14.70;90.90;;;;;;5034063;28;20052;-70
2021/05/11 01:06:45;;;;;;;10.88;6.15;;;14.80;90.90;;;;;;5034875;28;20382;-70
2021/05/11 01:09:11;;;;;;;12.07;6.30;;;14.70;90.90;;;;;;5016413;28;20322;-70
2021/05/11 01:11:37;;;;;;;10.07;5.70;;;14.80;91.00;;;;;;5016983;28;20030;-70
2021/05/11 01:14:04;;;;;;;10.05;5.47;;;14.80;91.00;;;;;;5016327;28;20474;-70
2021/05/11 01:16:32;;;;;;;10.95;6.28;;;14.80;91.00;;;;;;5016631;28;20478;-70
2021/05/11 01:24:14;;;;;;;12.15;6.35;;;14.80;90.70;;;;;;5033982;28;20021;-71
2021/05/11 01:26:52;;;;;;;13.00;6.63;;;14.80;90.70;;;;;;5016777;28;20026;-70
2021/05/11 01:29:34;;;;;;;10.32;6.25;;;14.70;90.80;;;;;;5034477;28;20467;-70
2021/05/11 01:51:52;;;;;;;12.88;6.97;;;14.60;91.10;;;;;;5034177;28;20033;-70
2021/05/11 01:54:03;;;;;;;11.30;6.43;;;14.60;90.90;;;;;;5016131;28;20041;-70
2021/05/11 02:23:27;;;;;;;9.82;5.65;;;14.70;90.60;;;;;;5033586;28;20044;-70
2021/05/11 02:25:53;;;;;;;9.52;4.20;;;14.70;90.40;;;;;;5033068;28;20500;-70
2021/05/11 02:28:19;;;;;;;6.70;3.92;;;14.70;90.40;;;;;;5032721;28;20032;-70
2021/05/11 02:30:45;;;;;;;5.88;3.47;;;14.70;90.40;;;;;;5033232;28;20061;-70
2021/05/11 02:33:10;;;;;;;6.28;3.85;;;14.60;90.60;;;;;;5014914;28;20042;-70
2021/05/11 02:35:36;;;;;;;8.80;4.82;;;14.50;90.60;;;;;;5033162;28;20351;-70
2021/05/11 02:38:02;;;;;;;7.65;4.80;;;14.60;90.70;;;;;;5014836;28;20363;-70
2021/05/11 02:40:28;;;;;;;9.25;5.10;;;14.60;90.50;;;;;;5015342;28;20417;-70
2021/05/11 02:42:59;;;;;;;8.93;5.15;;;14.60;90.40;;;;;;5033033;28;20484;-70
2021/05/11 02:45:25;;;;;;;9.63;5.25;;;14.60;90.50;;;;;;5032832;28;20026;-71
2021/05/11 02:47:51;;;;;;;11.30;6.10;;;14.70;90.50;;;;;;5033085;28;20021;-70
2021/05/11 02:50:18;;;;;;;11.32;5.90;;;14.70;90.60;;;;;;5032378;28;20432;-70
2021/05/11 02:52:45;;;;;;;10.48;6.10;;;14.60;90.70;;;;;;5015070;28;20112;-70
2021/05/11 02:55:11;;;;;;;11.00;5.68;;;14.70;90.70;;;;;;5014573;28;20433;-70
2021/05/11 02:57:37;;;;;;;10.60;5.43;;;14.70;90.50;;;;;;5015052;28;20025;-70
2021/05/11 03:00:05;;;;;;;11.43;5.93;;;14.70;90.50;;;;;;5014397;28;20356;-70
2021/05/11 03:02:31;;;;;;;10.77;5.63;;;14.70;90.50;;;;;;5031120;28;20034;-70
2021/05/11 03:04:56;;;;;;;8.55;5.57;;;14.70;90.50;;;;;;5032729;28;20032;-70
2021/05/11 03:07:22;;;;;;;10.55;5.68;;;14.70;90.50;;;;;;5014333;28;20036;-70
2021/05/11 03:09:48;;;;;;;9.23;5.70;;;14.70;90.40;;;;;;5015037;28;20037;-70
2021/05/11 03:12:13;;;;;;;11.30;6.00;;;14.70;90.30;;;;;;5014342;28;20033;-71
2021/05/11 03:14:39;;;;;;;10.13;5.22;;;14.70;90.40;;;;;;5032617;28;20538;-70
2021/05/11 03:17:05;;;;;;;9.52;5.68;;;14.70;90.30;;;;;;5013954;28;20041;-70
2021/05/11 03:19:30;;;;;;;11.05;6.22;;;14.70;90.40;;;;;;5014967;28;20512;-70
2021/05/11 03:21:56;;;;;;;12.90;6.35;;;14.70;90.50;;;;;;5014800;28;20051;-70
2021/05/11 03:24:22;;;;;;;12.02;6.75;;;14.60;90.60;;;;;;5031912;28;20030;-70
2021/05/11 03:26:49;;;;;;;10.98;6.38;;;14.50;90.80;;;;;;5015280;28;20032;-71
2021/05/11 03:29:15;;;;;;;11.73;6.10;;;14.50;90.90;;;;;;5020613;28;20120;-70
2021/05/11 03:31:41;;;;;;;11.50;6.38;;;14.40;91.00;;;;;;5038673;28;20156;-70
2021/05/11 03:34:06;;;;;;;12.38;6.65;;;14.50;91.00;;;;;;5038408;28;20030;-70
2021/05/11 03:36:32;;;;;;;11.30;6.57;;;14.50;91.00;;;;;;5038957;28;20411;-70
2021/05/11 03:39:01;;;;;;;10.75;6.05;;;14.40;90.90;;;;;;5021330;28;20067;-70
2021/05/11 03:41:30;;;;;;;10.05;6.28;;;14.40;91.00;;;;;;5038918;28;20117;-70
2021/05/11 03:44:05;;;;;;;11.43;6.32;;;14.30;90.80;;;;;;5021190;28;20030;-70
2021/05/11 03:46:32;;;;;;;14.15;6.70;;;14.30;90.90;;;;;;5037464;28;20077;-70
2021/05/11 03:48:58;;;;;;;12.32;6.57;;;14.30;90.80;;;;;;5037569;28;20123;-70
2021/05/11 03:51:24;;;;;;;12.27;6.28;;;14.40;90.60;;;;;;5020404;28;20256;-70
2021/05/11 03:53:49;;;;;;;10.85;6.30;;;14.30;90.40;;;;;;5038529;28;20481;-70
2021/05/11 03:56:15;;;;;;;12.40;6.93;;;14.30;90.60;;;;;;5020166;28;20485;-70
2021/05/11 03:58:41;;;;;;;10.63;6.28;;;14.20;90.70;;;;;;5037396;28;20056;-70
2021/05/11 04:01:06;;;;;;;11.65;6.32;;;14.20;90.80;;;;;;5037897;28;20032;-70
2021/05/11 04:03:32;;;;;;;12.13;6.50;;;14.20;90.90;;;;;;5038722;28;20484;-70
2021/05/11 04:05:59;;;;;;;11.90;6.18;;;14.30;91.00;;;;;;5020995;28;20036;-70
2021/05/11 04:08:39;;;;;;;13.27;7.15;;;14.30;91.10;;;;;;5038054;28;20029;-70
2021/05/11 04:16:22;;;;;;;13.07;6.90;;;14.30;91.20;;;;;;5038061;28;20088;-70
2021/05/11 04:18:51;;;;;;;14.55;7.78;;;14.30;91.30;;;;;;5020913;28;20091;-70
2021/05/11 04:21:18;;;;;;;13.10;7.22;;;14.20;91.30;;;;;;5037889;28;20044;-70
2021/05/11 04:23:45;;;;;;;13.73;7.28;;;14.20;91.50;;;;;;5038471;28;20462;-70
2021/05/11 04:26:11;;;;;;;13.13;7.43;;;14.30;91.50;;;;;;5037892;28;20058;-71
2021/05/11 04:28:37;;;;;;;13.82;7.43;;;14.30;91.30;;;;;;5037210;28;20041;-70
2021/05/11 04:31:04;;;;;;;12.93;7.15;;;14.30;91.20;;;;;;5019715;28;20152;-74
2021/05/11 04:33:31;;;;;;;13.88;7.75;;;14.30;91.30;;;;;;5020693;28;20049;-70
2021/05/11 04:35:56;;;;;;;14.68;7.75;;;14.20;91.40;;;;;;5038453;28;20140;-70
2021/05/11 04:38:22;;;;;;;15.38;7.70;;;14.20;91.50;;;;;;5019213;28;20119;-70
2021/05/11 04:40:48;;;;;;;16.48;8.18;;;14.20;91.50;;;;;;5034538;28;20029;-70
2021/05/11 04:43:15;;;;;;;14.57;7.68;;;14.20;91.60;;;;;;5016932;28;20502;-70
2021/05/11 04:45:40;;;;;;;16.58;8.02;;;14.20;91.70;;;;;;5017163;28;20148;-70
2021/05/11 04:48:07;;;;;;;18.35;9.23;;;14.20;91.70;;;;;;5016851;28;20061;-70
2021/05/11 04:50:33;;;;;;;15.68;8.20;;;14.20;92.00;;;;;;5034783;28;20108;-70
2021/05/11 04:52:58;;;;;;;18.00;8.65;;;14.20;91.60;;;;;;5035019;28;20557;-70
2021/05/11 04:55:25;;;;;;;15.95;8.48;;;14.30;91.70;;;;;;5016761;28;20038;-70
2021/05/11 04:57:50;;;;;;;18.52;9.55;;;14.30;91.60;;;;;;5035118;28;20041;-70
2021/05/11 05:00:17;;;;;;;18.95;8.43;;;14.30;91.40;;;;;;5016630;28;20033;-70
2021/05/11 05:02:47;;;;;;;16.13;8.75;;;14.40;91.40;;;;;;5017418;28;20387;-70
2021/05/11 05:05:14;;;;;;;15.73;8.93;;;14.40;91.30;;;;;;5032985;28;20048;-70
2021/05/11 05:07:40;;;;;;;19.23;9.18;;;14.40;91.40;;;;;;5017111;28;20488;-70
2021/05/11 05:10:08;;;;;;;17.67;8.95;;;14.50;91.30;;;;;;5016362;28;20121;-71
2021/05/11 05:12:34;;;;;;;14.15;7.40;;;14.50;91.20;;;;;;5034705;28;20051;-70
2021/05/11 05:15:00;;;;;;;15.18;8.18;;;14.40;91.30;;;;;;5034625;28;20037;-70
2021/05/11 05:17:25;;;;;;;12.55;7.00;;;14.40;91.20;;;;;;5016328;28;20025;-70
2021/05/11 05:19:51;;;;;;;13.90;7.45;;;14.50;91.20;;;;;;5034646;28;20036;-70
2021/05/11 05:22:17;;;;;;;15.07;8.20;;;14.50;91.40;;;;;;5016309;28;20034;-70
2021/05/11 05:24:44;;;;;;;11.68;6.65;;;14.50;91.50;;;;;;5016715;28;20097;-70
2021/05/11 05:27:19;;;;;;;13.50;7.05;;;14.60;91.20;;;;;;5016026;28;20029;-71
2021/05/11 05:29:45;;;;;;;13.90;7.05;;;14.80;91.00;;;;;;5016857;28;20033;-70
2021/05/11 05:32:10;;;;;;;15.80;7.78;;;14.80;90.70;;;;;;5015972;28;20056;-71
2021/05/11 05:34:36;;;;;;;17.00;8.07;;;14.90;90.50;;;;;;5016620;28;20163;-70
2021/05/11 05:37:02;;;;;;;14.63;7.90;;;14.90;90.40;;;;;;5034321;28;20138;-70
2021/05/11 05:39:35;;;;;;;14.80;7.97;;;14.90;90.40;;;;;;5033427;28;20044;-70
2021/05/11 05:42:01;;;;;;;17.40;8.25;;;14.90;90.50;;;;;;5016562;28;20055;-70
2021/05/11 05:44:27;;;;;;;15.48;7.75;;;14.90;90.50;;;;;;5033316;28;20807;-70
2021/05/11 05:46:53;;;;;;;14.10;7.35;;;14.80;90.50;;;;;;5034172;28;20133;-71
2021/05/11 05:49:19;;;;;;;14.00;7.20;;;14.90;90.70;;;;;;5015757;28;20030;-71
2021/05/11 05:51:48;;;;;;;16.08;7.22;;;14.90;90.60;;;;;;5033625;28;20033;-70
2021/05/11 05:54:14;;;;;;;15.82;7.93;;;14.90;90.50;;;;;;5015677;28;20064;-71
2021/05/11 05:56:39;;;;;;;10.68;6.05;;;14.80;90.60;;;;;;5033779;28;20057;-70
2021/05/11 05:59:05;;;;;;;11.93;6.90;;;14.70;90.70;;;;;;5034212;28;20033;-71
2021/05/11 06:01:30;;;;;;;13.00;6.75;;;14.70;90.70;;;;;;5015541;28;20033;-71
2021/05/11 06:04:09;;;;;;;10.55;6.15;;;14.70;90.70;;;;;;5033580;28;20022;-70
2021/05/11 06:06:35;;;;;;;9.77;5.82;;;14.80;90.60;;;;;;5015963;28;20087;-71
2021/05/11 06:09:01;;;;;;;9.93;5.80;;;14.80;90.60;;;;;;5016042;28;20355;-70
2021/05/11 06:19:14;;;;;;;7.97;4.80;;;14.90;90.50;;;;;;5032919;28;20079;-71
2021/05/11 06:21:40;;;;;;;9.07;5.00;;;14.90;90.40;;;;;;5015663;28;20026;-71
2021/05/11 06:24:06;;;;;;;8.18;4.70;;;14.90;90.20;;;;;;5015639;28;20025;-71
2021/05/11 06:26:32;;;;;;;8.10;5.20;;;14.90;90.20;;;;;;5015018;28;20121;-71
2021/05/11 06:29:00;;;;;;;9.50;5.20;;;14.90;90.20;;;;;;5031992;28;20470;-71
2021/05/11 06:31:26;;;;;;;7.18;4.82;;;14.90;89.90;;;;;;5032586;28;20112;-71
2021/05/11 06:33:51;;;;;;;8.75;4.57;;;14.90;90.00;;;;;;5015503;28;20451;-71
2021/05/11 06:36:18;;;;;;;8.25;4.65;;;14.90;90.20;;;;;;5032333;28;20033;-71
2021/05/11 06:38:43;;;;;;;8.38;4.57;;;14.90;90.20;;;;;;5033165;28;20036;-70
2021/05/11 06:41:10;;;;;;;9.70;4.97;;;14.90;90.20;;;;;;5032854;28;20033;-70
2021/05/11 06:43:37;;;;;;;8.15;4.70;;;14.80;90.50;;;;;;5033087;28;20018;-71
2021/05/11 06:48:34;;;;;;;8.68;4.72;;;14.80;90.60;;;;;;5032455;28;20239;-71
2021/05/11 06:53:39;;;;;;;9.05;4.47;;;14.80;90.50;;;;;;5032132;28;20155;-68
2021/05/11 06:56:07;;;;;;;7.13;4.50;;;14.90;90.30;;;;;;5015313;28;20036;-71
2021/05/11 06:58:33;;;;;;;7.13;4.93;;;14.90;90.10;;;;;;5032239;28;20505;-71
2021/05/11 07:00:59;;;;;;;11.15;5.38;;;15.00;90.00;;;;;;5014986;28;20029;-71
2021/05/11 07:03:24;;;;;;;8.75;5.45;;;15.00;89.90;;;;;;5013740;28;20203;-71
2021/05/11 07:05:52;;;;;;;6.95;4.70;;;15.10;89.90;;;;;;5014963;28;20017;-68
2021/05/11 07:10:55;;;;;;;6.38;4.18;;;15.20;90.10;;;;;;5032780;28;20026;-68
2021/05/11 07:13:21;;;;;;;9.77;4.78;;;15.20;89.80;;;;;;5031945;28;20175;-69
2021/05/11 07:15:47;;;;;;;7.47;4.30;;;15.20;90.10;;;;;;5032401;28;20065;-68
2021/05/11 07:18:16;;;;;;;6.53;4.30;;;15.20;90.10;;;;;;5014263;28;20029;-72
2021/05/11 07:20:47;;;;;;;6.78;4.68;;;15.20;89.90;;;;;;5015138;28;20060;-68
2021/05/11 07:23:21;;;;;;;7.78;4.82;;;15.20;90.10;;;;;;5032252;28;20032;-72
2021/05/11 07:28:43;;;;;;;8.00;4.70;;;15.10;90.20;;;;;;5031997;28;20040;-68
2021/05/11 07:31:10;;;;;;;8.60;4.95;;;15.20;90.20;;;;;;5032483;28;20032;-68
2021/05/11 07:36:02;;;;;;;9.77;5.35;;;15.10;90.00;;;;;;5032371;28;20025;-68
2021/05/11 07:38:28;;;;;;;8.57;5.50;;;15.10;89.90;;;;;;5031759;28;20075;-68
2021/05/11 07:40:54;;;;;;;11.30;5.43;;;15.20;90.10;;;;;;5014629;28;20021;-68
2021/05/11 07:43:24;;;;;;;8.85;5.25;;;15.20;90.30;;;;;;5013965;28;20030;-69
2021/05/11 08:04:45;;;;;;;4.75;3.22;;;15.90;86.80;;;;;;5031635;28;20171;-69
2021/05/11 08:17:43;;;;;;;2.55;2.00;;;16.40;85.00;;;;;;5035273;28;20052;-69
2021/05/11 08:28:28;;;;;;;2.80;1.50;;;16.50;80.90;;;;;;5035093;28;20029;-69
2021/05/11 08:30:54;;;;;;;2.25;1.58;;;16.60;80.90;;;;;;5035645;28;20149;-68
2021/05/11 08:33:20;;;;;;;1.70;1.27;;;16.60;80.40;;;;;;5034895;28;20493;-69
2021/05/11 08:35:48;;;;;;;2.38;1.15;;;16.70;79.90;;;;;;5034538;28;20033;-69
2021/05/11 08:38:13;;;;;;;1.15;0.98;;;16.80;78.70;;;;;;5017646;28;20029;-69
2021/05/11 08:40:39;;;;;;;1.00;0.90;;;16.80;78.60;;;;;;5017048;28;20036;-68
2021/05/11 08:43:33;;;;;;;1.35;0.80;;;16.80;77.90;;;;;;5017663;28;20065;-69
2021/05/11 08:46:06;;;;;;;2.55;1.33;;;16.70;76.50;;;;;;5013906;28;20047;-68
2021/05/11 08:48:33;;;;;;;2.13;0.95;;;16.70;77.50;;;;;;5013505;28;20076;-69
2021/05/11 09:27:11;;;;;;;2.03;1.20;;;17.20;77.50;;;;;;5014279;28;20032;-71
2021/05/11 09:32:14;;;;;;;1.20;0.95;;;17.40;76.60;;;;;;5014602;28;20026;-69
2021/05/11 09:56:52;;;;;;;1.40;1.20;;;17.00;77.10;;;;;;5033505;28;20026;-71
2021/05/11 10:47:01;;;;;;;9.20;6.10;;;16.60;79.80;;;;;;5032261;28;20056;-71
2021/05/11 10:49:32;;;;;;;2.33;2.10;;;16.60;80.00;;;;;;5014830;28;20032;-71
2021/05/11 10:52:21;;;;;;;2.38;1.63;;;16.60;79.60;;;;;;5015458;28;20032;-70
2021/05/11 10:55:32;;;;;;;1.60;1.50;;;16.40;80.10;;;;;;5014678;28;20080;-71
2021/05/11 10:57:52;;;;;;;1.95;1.60;;;16.40;80.60;;;;;;5023645;28;20026;-70
2021/05/11 11:03:26;;;;;;;2.42;1.30;;;16.40;81.10;;;;;;5019536;28;20128;-70
2021/05/11 11:05:54;;;;;;;2.25;1.30;;;16.30;81.10;;;;;;5032938;28;20041;-70
2021/05/11 11:08:34;;;;;;;2.20;1.40;;;16.30;81.20;;;;;;5032799;28;20026;-70
2021/05/11 11:11:12;;;;;;;1.35;1.10;;;16.30;81.30;;;;;;5015200;28;20036;-70
2021/05/11 11:13:42;;;;;;;1.27;1.10;;;16.30;81.10;;;;;;5032167;28;20478;-70
2021/05/11 11:16:08;;;;;;;2.10;1.20;;;16.40;80.70;;;;;;5015454;28;20037;-70
2021/05/11 11:18:35;;;;;;;1.65;1.20;;;16.40;80.70;;;;;;5032079;28;20489;-71
2021/05/11 11:23:50;;;;;;;4.00;1.75;;;16.40;81.60;;;;;;5032084;28;20030;-71
2021/05/11 11:26:30;;;;;;;3.55;1.83;;;16.30;81.90;;;;;;5032588;28;20492;-70
2021/05/11 11:29:00;;;;;;;3.13;1.73;;;16.30;81.70;;;;;;5032561;28;20056;-70
2021/05/11 11:31:28;;;;;;;3.25;1.50;;;16.30;81.70;;;;;;5032290;28;20056;-70
2021/05/11 11:34:28;;;;;;;3.17;1.60;;;16.00;81.90;;;;;;5014641;28;20029;-70
2021/05/11 11:36:59;;;;;;;2.55;1.42;;;16.00;82.70;;;;;;5014745;28;20037;-70
2021/05/11 11:39:26;;;;;;;3.97;1.33;;;16.00;82.90;;;;;;5014880;28;20111;-70
2021/05/11 11:41:54;;;;;;;1.55;1.13;;;16.00;83.20;;;;;;5031819;28;20466;-70
2021/05/11 11:44:22;;;;;;;2.10;1.35;;;15.90;83.40;;;;;;5014618;28;20032;-70
2021/05/11 11:46:57;;;;;;;2.63;1.10;;;15.90;83.70;;;;;;5010542;28;20045;-71
2021/05/11 11:49:29;;;;;;;2.45;0.80;;;16.00;83.90;;;;;;5015017;28;20033;-70
2021/05/11 11:52:02;;;;;;;0.60;0.52;;;16.00;82.50;;;;;;5015492;28;20025;-70
2021/05/11 11:57:55;;;;;;;0.77;0.50;;;16.00;81.30;;;;;;5016296;28;20080;-70
2021/05/11 12:00:20;;;;;;;2.63;0.40;;;15.90;82.30;;;;;;5015058;28;20026;-70
2021/05/11 12:02:53;;;;;;;2.15;0.50;;;15.90;82.40;;;;;;5015731;28;20045;-70
2021/05/11 12:05:21;;;;;;;1.13;0.47;;;16.00;82.80;;;;;;5016469;28;20072;-70
2021/05/11 12:10:33;;;;;;;0.30;0.30;;;15.80;81.80;;;;;;5015722;28;20041;-74
2021/05/11 12:13:07;;;;;;;0.30;0.30;;;15.80;81.80;;;;;;5014403;28;20124;-70
2021/05/11 12:15:33;;;;;;;1.88;0.43;;;15.70;81.60;;;;;;5015484;28;20092;-71
2021/05/11 12:18:19;;;;;;;0.30;0.30;;;15.60;82.10;;;;;;5014842;28;20411;-70
2021/05/11 12:20:46;;;;;;;1.08;0.30;;;15.70;82.40;;;;;;5014308;28;20054;-71
2021/05/11 12:23:17;;;;;;;0.20;0.20;;;15.70;81.80;;;;;;5015982;28;20029;-70
2021/05/11 12:25:54;;;;;;;2.25;0.30;;;15.60;81.20;;;;;;5015345;28;20030;-70
2021/05/11 12:28:49;;;;;;;0.20;0.20;;;15.50;82.00;;;;;;5014843;28;20378;-70
2021/05/11 12:31:16;;;;;;;0.43;0.30;;;15.50;82.70;;;;;;5002654;28;20034;-70
2021/05/11 12:33:43;;;;;;;2.60;0.40;;;15.50;83.60;;;;;;5015210;28;20478;-70
2021/05/11 12:36:24;;;;;;;1.65;0.35;;;15.50;83.20;;;;;;5014466;28;20026;-70
2021/05/11 12:38:51;;;;;;;2.70;0.38;;;15.50;83.00;;;;;;5013823;28;20037;-71
2021/05/11 12:41:33;;;;;;;0.90;0.40;;;15.50;83.20;;;;;;5015626;28;20057;-70
2021/05/11 12:44:01;;;;;;;0.73;0.38;;;15.50;83.30;;;;;;5015739;28;20037;-70
2021/05/11 12:46:32;;;;;;;0.60;0.47;;;15.40;83.40;;;;;;5024027;28;20475;-70
2021/05/11 12:49:00;;;;;;;0.57;0.30;;;15.40;83.60;;;;;;5017583;28;20112;-71
2021/05/11 12:51:44;;;;;;;0.40;0.30;;;15.50;83.70;;;;;;5017547;28;20029;-71
2021/05/11 12:54:33;;;;;;;0.20;0.20;;;15.50;83.70;;;;;;5017592;28;20033;-69
2021/05/11 13:27:40;;;;;;;0.43;0.30;;;15.60;85.80;;;;;;5034452;28;20079;-69
2021/05/11 13:33:01;;;;;;;;;;;15.70;86.10;;;;;;5034285;28;20030;-70
2021/05/11 13:35:27;;;;;;;0.50;0.30;;;15.70;85.90;;;;;;5033996;28;19909;-69
2021/05/11 13:37:53;;;;;;;0.60;0.40;;;15.70;85.90;;;;;;5032449;28;20029;-69
2021/05/11 13:40:18;;;;;;;0.28;0.28;;;15.60;86.90;;;;;;5033168;28;20029;-69
2021/05/11 13:42:44;;;;;;;0.82;0.30;;;15.70;86.50;;;;;;5015806;28;20462;-69
2021/05/11 13:45:10;;;;;;;0.77;0.43;;;15.70;86.10;;;;;;5034214;28;20021;-69
2021/05/11 13:47:39;;;;;;;3.05;0.40;;;15.70;86.10;;;;;;5015982;28;20103;-73
2021/05/11 13:50:05;;;;;;;1.95;1.20;;;15.80;86.40;;;;;;5016742;28;20021;-69
2021/05/11 13:52:32;;;;;;;2.13;1.40;;;15.80;86.70;;;;;;5016372;28;20057;-69
2021/05/11 13:55:03;;;;;;;1.95;1.27;;;15.80;87.00;;;;;;5033444;28;20108;-69
2021/05/11 14:03:14;;;;;;;0.60;0.43;;;15.70;87.40;;;;;;5028378;28;20048;-71
2021/05/11 14:05:40;;;;;;;2.13;0.55;;;15.60;87.20;;;;;;5032071;28;20025;-69
2021/05/11 14:08:06;;;;;;;1.48;0.60;;;15.60;87.80;;;;;;5032582;28;20462;-69
2021/05/11 14:10:31;;;;;;;0.95;0.60;;;15.60;88.10;;;;;;5034066;28;20037;-69
2021/05/11 14:12:57;;;;;;;2.33;0.55;;;15.60;88.30;;;;;;5031540;28;20215;-69
2021/05/11 14:15:23;;;;;;;0.40;0.40;;;15.50;88.60;;;;;;5033534;28;20045;-69
2021/05/11 14:17:48;;;;;;;0.70;0.60;;;15.60;88.70;;;;;;5031866;28;20482;-69
2021/05/11 14:20:14;;;;;;;1.48;0.70;;;15.50;88.30;;;;;;5016046;28;20021;-69
2021/05/11 14:22:40;;;;;;;0.80;0.50;;;15.50;88.20;;;;;;5032770;28;20048;-69
2021/05/11 14:25:06;;;;;;;1.42;0.50;;;15.50;88.50;;;;;;5033534;28;20443;-69
2021/05/11 14:27:32;;;;;;;0.73;0.50;;;15.50;88.70;;;;;;5033418;28;20022;-69
2021/05/11 14:29:57;;;;;;;2.67;0.75;;;15.50;88.50;;;;;;5032732;28;20033;-69
2021/05/11 14:32:23;;;;;;;3.00;1.02;;;15.50;88.40;;;;;;5032009;28;20029;-69
2021/05/11 14:34:49;;;;;;;2.05;0.88;;;15.40;88.30;;;;;;5032662;28;20455;-69
2021/05/11 14:37:14;;;;;;;22.65;10.75;;;15.40;88.30;;;;;;5033240;28;20032;-69
2021/05/11 14:39:40;;;;;;;36.90;16.70;;;15.40;88.40;;;;;;5014889;28;20025;-69
2021/05/11 14:42:06;;;;;;;5.60;3.47;;;15.40;88.60;;;;;;5033198;28;20057;-70
2021/05/11 14:44:32;;;;;;;1.95;1.40;;;15.40;88.30;;;;;;5033154;28;20052;-69
2021/05/11 14:46:58;;;;;;;3.03;1.48;;;15.40;88.40;;;;;;5032318;28;20436;-69
2021/05/11 14:49:24;;;;;;;3.47;1.30;;;15.40;88.70;;;;;;5015306;28;20036;-68
2021/05/11 14:51:49;;;;;;;1.00;0.90;;;15.40;88.60;;;;;;5031074;28;20124;-71
2021/05/11 14:54:15;;;;;;;1.70;0.85;;;15.40;88.70;;;;;;5033034;28;20068;-69
2021/05/11 14:56:41;;;;;;;0.57;0.57;;;15.40;88.70;;;;;;5032371;28;20078;-69
2021/05/11 14:59:08;;;;;;;1.88;0.90;;;15.40;89.10;;;;;;5032892;28;20427;-69
2021/05/11 15:01:33;;;;;;;0.70;0.50;;;15.40;88.20;;;;;;5015135;28;20071;-69
2021/05/11 15:04:00;;;;;;;0.68;0.50;;;15.30;87.80;;;;;;5032276;28;20459;-70
2021/05/11 15:06:27;;;;;;;1.30;0.60;;;15.30;88.00;;;;;;5015091;28;20029;-69
2021/05/11 15:08:52;;;;;;;1.70;0.80;;;15.20;88.30;;;;;;5032083;28;20032;-69
2021/05/11 15:11:18;;;;;;;1.48;0.70;;;15.10;88.60;;;;;;5014833;28;20030;-69
2021/05/11 15:13:45;;;;;;;0.63;0.50;;;15.20;88.80;;;;;;5014296;28;20124;-70
2021/05/11 15:16:13;;;;;;;1.95;0.50;;;15.20;88.80;;;;;;5031214;28;20425;-69
2021/05/11 15:18:39;;;;;;;1.23;0.50;;;15.20;88.60;;;;;;5014962;28;20029;-69
2021/05/11 15:21:05;;;;;;;0.65;0.43;;;15.20;88.90;;;;;;5014357;28;20030;-69
2021/05/11 15:23:30;;;;;;;0.57;0.40;;;15.30;89.00;;;;;;5032039;28;20032;-69
2021/05/11 15:25:56;;;;;;;1.45;0.40;;;15.20;88.70;;;;;;5014150;28;20033;-69
2021/05/11 15:28:22;;;;;;;0.50;0.40;;;15.10;88.00;;;;;;5014844;28;20051;-69
2021/05/11 15:30:47;;;;;;;0.40;0.40;;;15.10;88.60;;;;;;5030578;28;20460;-69
2021/05/11 15:33:13;;;;;;;0.70;0.40;;;15.10;88.20;;;;;;5031788;28;20083;-69
2021/05/11 15:35:39;;;;;;;0.28;0.20;;;15.10;88.60;;;;;;5031217;28;20120;-69
2021/05/11 15:38:06;;;;;;;0.50;0.20;;;15.10;88.20;;;;;;5014095;28;20359;-69
2021/05/11 15:40:36;;;;;;;0.88;0.30;;;15.10;88.30;;;;;;5032079;28;20025;-69
2021/05/11 15:43:04;;;;;;;0.25;0.25;;;15.10;87.90;;;;;;5014119;28;20036;-69
2021/05/11 15:45:30;;;;;;;1.10;0.38;;;15.10;88.20;;;;;;5014193;28;20033;-69
2021/05/11 15:47:56;;;;;;;1.27;0.20;;;15.10;88.20;;;;;;5031516;28;20077;-69
2021/05/11 15:50:26;;;;;;;3.20;0.50;;;15.10;88.80;;;;;;5031998;28;20402;-69
2021/05/11 15:52:54;;;;;;;1.20;0.38;;;15.00;88.50;;;;;;5014023;28;20117;-69
2021/05/11 15:55:20;;;;;;;0.52;0.40;;;15.10;88.40;;;;;;5014504;28;20567;-71
2021/05/11 15:57:46;;;;;;;2.00;1.30;;;15.10;88.70;;;;;;5013949;28;20061;-71
2021/05/11 16:00:12;;;;;;;1.20;0.40;;;15.00;89.50;;;;;;5014174;28;20025;-71
2021/05/11 16:02:38;;;;;;;0.65;0.40;;;15.00;89.50;;;;;;5014436;28;20025;-71
2021/05/11 16:05:06;;;;;;;0.55;0.40;;;15.00;89.40;;;;;;5013838;28;20269;-69
2021/05/11 16:07:32;;;;;;;0.40;0.25;;;15.00;89.10;;;;;;5014319;28;20061;-69
2021/05/11 16:09:58;;;;;;;0.90;0.40;;;15.00;89.50;;;;;;5013705;28;20474;-70
2021/05/11 16:12:24;;;;;;;0.52;0.52;;;15.00;89.40;;;;;;5031668;28;20109;-70
2021/05/11 16:14:50;;;;;;;0.50;0.40;;;15.00;89.00;;;;;;5031392;28;20042;-70
2021/05/11 16:17:16;;;;;;;0.70;0.60;;;14.90;89.00;;;;;;5031412;28;20041;-69
2021/05/11 16:19:42;;;;;;;1.15;0.90;;;14.90;89.20;;;;;;5030666;28;20030;-70
2021/05/11 16:22:07;;;;;;;0.95;0.60;;;14.90;89.30;;;;;;5013653;28;20462;-70
2021/05/11 16:24:33;;;;;;;0.95;0.63;;;14.90;89.30;;;;;;5014119;28;20348;-69
2021/05/11 16:26:59;;;;;;;0.90;0.60;;;14.90;89.70;;;;;;5013286;28;20029;-70
2021/05/11 16:29:24;;;;;;;15.10;7.88;;;14.90;89.60;;;;;;5014116;28;20029;-70
2021/05/11 16:31:50;;;;;;;35.25;18.48;;;14.90;89.60;;;;;;5013503;28;20030;-70
2021/05/11 16:34:16;;;;;;;6.57;3.85;;;14.90;89.90;;;;;;5014358;28;20092;-69
2021/05/11 16:36:41;;;;;;;5.30;1.75;;;14.90;90.00;;;;;;5035192;28;20053;-70
2021/05/11 16:39:07;;;;;;;1.33;1.20;;;14.80;90.30;;;;;;5016744;28;20037;-70
2021/05/11 16:41:33;;;;;;;1.60;1.20;;;14.80;90.30;;;;;;5035098;28;20382;-70
2021/05/11 16:43:58;;;;;;;1.67;1.05;;;14.80;90.40;;;;;;5016914;28;20026;-70
2021/05/11 16:46:25;;;;;;;2.45;1.50;;;14.80;90.50;;;;;;5034982;28;20433;-70
2021/05/11 16:48:51;;;;;;;1.40;1.20;;;14.80;90.60;;;;;;5016887;28;20022;-71
2021/05/11 16:51:16;;;;;;;2.72;1.30;;;14.80;90.50;;;;;;5017643;28;20395;-70
2021/05/11 16:53:42;;;;;;;2.92;1.50;;;14.90;90.70;;;;;;5017249;28;20037;-70
2021/05/11 16:56:09;;;;;;;3.33;1.33;;;14.80;90.60;;;;;;5016859;28;20030;-70
2021/05/11 16:58:36;;;;;;;2.72;1.63;;;14.80;90.80;;;;;;5017155;28;20025;-70
2021/05/11 17:01:01;;;;;;;1.38;1.27;;;14.70;90.80;;;;;;5034424;28;20025;-70
2021/05/11 17:03:27;;;;;;;2.80;1.35;;;14.80;90.70;;;;;;5017095;28;20036;-70
2021/05/11 17:05:53;;;;;;;1.38;1.05;;;14.70;90.60;;;;;;5016613;28;20029;-71
2021/05/11 17:08:18;;;;;;;1.83;1.27;;;14.70;90.60;;;;;;5017095;28;20116;-71
2021/05/11 17:10:44;;;;;;;2.63;1.20;;;14.70;90.70;;;;;;5017046;28;20025;-71
2021/05/11 17:13:10;;;;;;;1.63;1.40;;;14.70;90.70;;;;;;5016351;28;20029;-71
2021/05/11 17:15:36;;;;;;;1.17;1.08;;;14.70;90.70;;;;;;5035105;28;20382;-71
2021/05/11 17:18:05;;;;;;;1.27;0.90;;;14.70;90.50;;;;;;5034127;28;20026;-71
2021/05/11 17:20:31;;;;;;;7.80;4.18;;;14.70;90.60;;;;;;5016854;28;20463;-71